Bellshill, United Kingdom
Current Conditions -  °F | °C
As of 6:20 PM on Tuesday 21 Oct 2014 (Local Time) from EGPF Reporting Station
Broken Clouds Broken Clouds  
Wind Chill:   Ceiling: 3400
Heat Index:   Visibility: 6mi
Dew Point:   Wind: 12mph
Humidity: 66%   Direction: 290°WNW
Pressure: 29.83"   Gusts: 32mph
Location:  55.82°N, 4.03°W
Report Text: EGPF 211720Z AUTO 29010G28KT 260V340 9999 FEW024/// BKN034/// //////TCU 08/02 Q1010
Loading
Personal Weather Stations






























Interactive Weather Map
Tropical Storm Tracking
New forecast layout! Learn more

10-Day Weather Forecast

Advertisements
Track Severe Weather on mobile